BAW300X EDDH-EGKK
Flight info
| Callsign | BAW300X |
|---|---|
| Flight time | 1h 18m |
| Altitude | 34000 |
| Route | WSN5G WSN N125 ONTAZ GALSO Q63 ARREK Y4 TEBRA TEBR2G |
| Aircraft | MD82/M-VGDW/C |
Departure
| Time | 2026-04-26 20:37 |
|---|---|
| Airport | Hamburg Helmut Schmidt Airport (EDDH) |
Arrival
| Time | 2026-04-26 21:56 |
|---|---|
| Airport | London Gatwick Airport (EGKK) |
| Time | Latitude | Longitude | Altitude | Speed | Heading |
|---|---|---|---|---|---|
| 2026-04-26 20:14 | 53.63205 | 9.99974 | 60 ft | 0 kts | 320° |
| 2026-04-26 20:31 | 53.63198 | 9.99984 | 59 ft | 2 kts | 320° |
| 2026-04-26 20:31 | 53.63189 | 10.00004 | 59 ft | 2 kts | 291° |
| 2026-04-26 20:32 | 53.63186 | 10.00030 | 59 ft | 2 kts | 268° |
| 2026-04-26 20:32 | 53.63189 | 10.00053 | 59 ft | 2 kts | 245° |
| 2026-04-26 20:32 | 53.63193 | 10.00065 | 59 ft | 0 kts | 232° |
| 2026-04-26 20:32 | 53.63198 | 10.00073 | 59 ft | 0 kts | 230° |
| 2026-04-26 20:33 | 53.63198 | 10.00074 | 59 ft | 0 kts | 230° |
| 2026-04-26 20:35 | 53.63189 | 10.00055 | 59 ft | 8 kts | 232° |
| 2026-04-26 20:35 | 53.63145 | 9.99965 | 59 ft | 9 kts | 230° |
| 2026-04-26 20:35 | 53.63107 | 9.99895 | 59 ft | 7 kts | 208° |
| 2026-04-26 20:35 | 53.63044 | 9.99916 | 59 ft | 12 kts | 155° |
| 2026-04-26 20:36 | 53.62975 | 9.99974 | 59 ft | 10 kts | 153° |
| 2026-04-26 20:36 | 53.62920 | 9.99973 | 59 ft | 7 kts | 221° |
| 2026-04-26 20:36 | 53.62881 | 9.99866 | 59 ft | 15 kts | 243° |
| 2026-04-26 20:36 | 53.62875 | 9.99745 | 59 ft | 9 kts | 316° |
| 2026-04-26 20:37 | 53.63095 | 9.99549 | 59 ft | 72 kts | 333° |
| 2026-04-26 20:37 | 53.63764 | 9.98973 | 59 ft | 140 kts | 333° |
| 2026-04-26 20:37 | 53.64731 | 9.98147 | 479 ft | 163 kts | 333° |
| 2026-04-26 20:37 | 53.65717 | 9.97306 | 1294 ft | 166 kts | 334° |
| 2026-04-26 20:38 | 53.66793 | 9.96385 | 1943 ft | 178 kts | 333° |
| 2026-04-26 20:38 | 53.67873 | 9.95464 | 2771 ft | 180 kts | 332° |
| 2026-04-26 20:38 | 53.68971 | 9.94410 | 3509 ft | 184 kts | 315° |
| 2026-04-26 20:38 | 53.69530 | 9.92568 | 4115 ft | 194 kts | 278° |
| 2026-04-26 20:39 | 53.69290 | 9.90198 | 4482 ft | 225 kts | 245° |
| 2026-04-26 20:39 | 53.68608 | 9.87739 | 5154 ft | 242 kts | 248° |
| 2026-04-26 20:39 | 53.67889 | 9.85094 | 5949 ft | 254 kts | 248° |
| 2026-04-26 20:39 | 53.67160 | 9.82398 | 6907 ft | 258 kts | 249° |
| 2026-04-26 20:40 | 53.66416 | 9.79630 | 7801 ft | 263 kts | 249° |
| 2026-04-26 20:40 | 53.65655 | 9.76787 | 8691 ft | 268 kts | 250° |
| 2026-04-26 20:40 | 53.64881 | 9.73888 | 9532 ft | 273 kts | 251° |
| 2026-04-26 20:40 | 53.64125 | 9.71044 | 10331 ft | 277 kts | 251° |
| 2026-04-26 20:41 | 53.63327 | 9.68019 | 10865 ft | 293 kts | 251° |
| 2026-04-26 20:41 | 53.62476 | 9.64792 | 11334 ft | 308 kts | 250° |
| 2026-04-26 20:41 | 53.61586 | 9.61412 | 11804 ft | 326 kts | 250° |
| 2026-04-26 20:41 | 53.60672 | 9.57952 | 12793 ft | 328 kts | 251° |
| 2026-04-26 20:42 | 53.59744 | 9.54427 | 13760 ft | 331 kts | 251° |
| 2026-04-26 20:42 | 53.58799 | 9.50827 | 14598 ft | 336 kts | 251° |
| 2026-04-26 20:42 | 53.57857 | 9.47233 | 15457 ft | 339 kts | 251° |
| 2026-04-26 20:42 | 53.56896 | 9.43558 | 16270 ft | 343 kts | 251° |
| 2026-04-26 20:43 | 53.55929 | 9.39858 | 17085 ft | 346 kts | 251° |
| 2026-04-26 20:43 | 53.54960 | 9.36143 | 17852 ft | 350 kts | 250° |
| 2026-04-26 20:43 | 53.53972 | 9.32352 | 18593 ft | 353 kts | 250° |
| 2026-04-26 20:43 | 53.52995 | 9.28603 | 19305 ft | 357 kts | 250° |
| 2026-04-26 20:44 | 53.52025 | 9.24876 | 19996 ft | 360 kts | 250° |
| 2026-04-26 20:44 | 53.51054 | 9.21135 | 20624 ft | 364 kts | 250° |
| 2026-04-26 20:44 | 53.50039 | 9.17220 | 21291 ft | 367 kts | 250° |
| 2026-04-26 20:44 | 53.49017 | 9.13276 | 21945 ft | 370 kts | 250° |
| 2026-04-26 20:45 | 53.47999 | 9.09342 | 22526 ft | 374 kts | 250° |
| 2026-04-26 20:45 | 53.46959 | 9.05311 | 23149 ft | 377 kts | 250° |
| 2026-04-26 20:45 | 53.45903 | 9.01224 | 23722 ft | 381 kts | 251° |
| 2026-04-26 20:45 | 53.44852 | 8.97144 | 24314 ft | 383 kts | 251° |
| 2026-04-26 20:46 | 53.43797 | 8.93047 | 24881 ft | 386 kts | 251° |
| 2026-04-26 20:46 | 53.42730 | 8.88895 | 25433 ft | 389 kts | 251° |
| 2026-04-26 20:46 | 53.41661 | 8.84728 | 26022 ft | 391 kts | 251° |
| 2026-04-26 20:46 | 53.40579 | 8.80506 | 26555 ft | 394 kts | 251° |
| 2026-04-26 20:47 | 53.39505 | 8.76310 | 27113 ft | 396 kts | 251° |
| 2026-04-26 20:47 | 53.38770 | 8.73434 | 27468 ft | 398 kts | 251° |
| 2026-04-26 20:47 | 53.37342 | 8.67846 | 28138 ft | 401 kts | 252° |
| 2026-04-26 20:47 | 53.36228 | 8.63477 | 28645 ft | 404 kts | 252° |
| 2026-04-26 20:48 | 53.35082 | 8.59147 | 29064 ft | 409 kts | 251° |
| 2026-04-26 20:48 | 53.33918 | 8.54850 | 29565 ft | 410 kts | 251° |
| 2026-04-26 20:48 | 53.32727 | 8.50485 | 30017 ft | 413 kts | 251° |
| 2026-04-26 20:48 | 53.31498 | 8.46008 | 30439 ft | 416 kts | 251° |
| 2026-04-26 20:49 | 53.30297 | 8.41640 | 30872 ft | 418 kts | 251° |
| 2026-04-26 20:49 | 53.29054 | 8.37128 | 31199 ft | 422 kts | 251° |
| 2026-04-26 20:49 | 53.27817 | 8.32646 | 31608 ft | 424 kts | 250° |
| 2026-04-26 20:49 | 53.26587 | 8.28192 | 31915 ft | 427 kts | 250° |
| 2026-04-26 20:50 | 53.25377 | 8.23810 | 32271 ft | 429 kts | 250° |
| 2026-04-26 20:50 | 53.24108 | 8.19214 | 32635 ft | 430 kts | 250° |
| 2026-04-26 20:50 | 53.22849 | 8.14645 | 32936 ft | 433 kts | 250° |
| 2026-04-26 20:50 | 53.21624 | 8.10208 | 33355 ft | 429 kts | 250° |
| 2026-04-26 20:51 | 53.20399 | 8.05766 | 34349 ft | 414 kts | 251° |
| 2026-04-26 20:51 | 53.17994 | 7.96994 | 34288 ft | 417 kts | 251° |
| 2026-04-26 20:52 | 53.15536 | 7.88023 | 34343 ft | 429 kts | 251° |
| 2026-04-26 20:52 | 53.13067 | 7.79001 | 34339 ft | 428 kts | 251° |
| 2026-04-26 20:53 | 53.10621 | 7.70029 | 34341 ft | 427 kts | 251° |
| 2026-04-26 20:53 | 53.08175 | 7.61035 | 34346 ft | 427 kts | 251° |
| 2026-04-26 20:54 | 53.05721 | 7.51987 | 34337 ft | 427 kts | 251° |
| 2026-04-26 20:54 | 53.03293 | 7.43006 | 34318 ft | 428 kts | 251° |
| 2026-04-26 20:55 | 53.00856 | 7.34056 | 34316 ft | 428 kts | 250° |
| 2026-04-26 20:55 | 52.98314 | 7.25186 | 34326 ft | 431 kts | 250° |
| 2026-04-26 20:56 | 52.95764 | 7.16375 | 34332 ft | 429 kts | 249° |
| 2026-04-26 20:56 | 52.93190 | 7.07519 | 34324 ft | 426 kts | 249° |
| 2026-04-26 20:57 | 52.90628 | 6.98709 | 34320 ft | 426 kts | 249° |
| 2026-04-26 20:57 | 52.88075 | 6.89932 | 34310 ft | 427 kts | 250° |
| 2026-04-26 20:58 | 52.85594 | 6.81391 | 34310 ft | 427 kts | 250° |
| 2026-04-26 20:58 | 52.83019 | 6.72509 | 34309 ft | 427 kts | 250° |
| 2026-04-26 20:59 | 52.80716 | 6.64543 | 34310 ft | 428 kts | 250° |
| 2026-04-26 20:59 | 52.77874 | 6.54694 | 34316 ft | 427 kts | 250° |
| 2026-04-26 21:00 | 52.75381 | 6.46034 | 34317 ft | 428 kts | 250° |
| 2026-04-26 21:00 | 52.72884 | 6.37339 | 34319 ft | 428 kts | 250° |
| 2026-04-26 21:01 | 52.70407 | 6.28689 | 34325 ft | 429 kts | 250° |
| 2026-04-26 21:01 | 52.68090 | 6.20582 | 34328 ft | 428 kts | 250° |
| 2026-04-26 21:02 | 52.65648 | 6.12009 | 34331 ft | 427 kts | 250° |
| 2026-04-26 21:02 | 52.62906 | 6.02862 | 34332 ft | 428 kts | 249° |
| 2026-04-26 21:03 | 52.60354 | 5.94473 | 34335 ft | 427 kts | 248° |
| 2026-04-26 21:03 | 52.57732 | 5.85897 | 34335 ft | 427 kts | 248° |
| 2026-04-26 21:04 | 52.55112 | 5.77342 | 34329 ft | 427 kts | 248° |
| 2026-04-26 21:04 | 52.52504 | 5.68825 | 34327 ft | 427 kts | 248° |
| 2026-04-26 21:05 | 52.49908 | 5.60337 | 34324 ft | 427 kts | 248° |
| 2026-04-26 21:05 | 52.47409 | 5.52153 | 34324 ft | 427 kts | 248° |
| 2026-04-26 21:06 | 52.45022 | 5.44317 | 34320 ft | 426 kts | 248° |
| 2026-04-26 21:06 | 52.42341 | 5.35503 | 34320 ft | 426 kts | 248° |
| 2026-04-26 21:07 | 52.39798 | 5.27126 | 34320 ft | 427 kts | 247° |
| 2026-04-26 21:07 | 52.37213 | 5.18589 | 34313 ft | 428 kts | 247° |
| 2026-04-26 21:08 | 52.34638 | 5.10066 | 34313 ft | 428 kts | 248° |
| 2026-04-26 21:08 | 52.32040 | 5.01445 | 34317 ft | 428 kts | 248° |
| 2026-04-26 21:09 | 52.29501 | 4.93000 | 34325 ft | 428 kts | 248° |
| 2026-04-26 21:09 | 52.26895 | 4.84558 | 34326 ft | 428 kts | 247° |
| 2026-04-26 21:10 | 52.24207 | 4.76111 | 34322 ft | 428 kts | 246° |
| 2026-04-26 21:10 | 52.21466 | 4.67563 | 34319 ft | 427 kts | 246° |
| 2026-04-26 21:11 | 52.18734 | 4.59070 | 34321 ft | 426 kts | 246° |
| 2026-04-26 21:11 | 52.16008 | 4.50596 | 34320 ft | 428 kts | 246° |
| 2026-04-26 21:12 | 52.13326 | 4.42258 | 34318 ft | 429 kts | 246° |
| 2026-04-26 21:12 | 52.10599 | 4.33766 | 34318 ft | 428 kts | 245° |
| 2026-04-26 21:13 | 52.07880 | 4.25280 | 34321 ft | 430 kts | 245° |
| 2026-04-26 21:13 | 52.05132 | 4.16692 | 34324 ft | 429 kts | 245° |
| 2026-04-26 21:14 | 52.02374 | 4.08048 | 34318 ft | 430 kts | 245° |
| 2026-04-26 21:14 | 51.99638 | 3.99463 | 34310 ft | 429 kts | 245° |
| 2026-04-26 21:15 | 51.96923 | 3.90921 | 34304 ft | 429 kts | 246° |
| 2026-04-26 21:15 | 51.94191 | 3.82307 | 34304 ft | 429 kts | 246° |
| 2026-04-26 21:16 | 51.91490 | 3.73765 | 34304 ft | 429 kts | 246° |
| 2026-04-26 21:16 | 51.88725 | 3.65184 | 34303 ft | 429 kts | 245° |
| 2026-04-26 21:17 | 51.85975 | 3.56856 | 34305 ft | 429 kts | 245° |
| 2026-04-26 21:17 | 51.83222 | 3.48529 | 34298 ft | 429 kts | 245° |
| 2026-04-26 21:18 | 51.80390 | 3.39969 | 34297 ft | 428 kts | 245° |
| 2026-04-26 21:18 | 51.77590 | 3.31494 | 34299 ft | 430 kts | 244° |
| 2026-04-26 21:19 | 51.74777 | 3.22963 | 34294 ft | 430 kts | 245° |
| 2026-04-26 21:19 | 51.72676 | 3.14126 | 34300 ft | 424 kts | 258° |
| 2026-04-26 21:20 | 51.71849 | 3.04703 | 34308 ft | 423 kts | 265° |
| 2026-04-26 21:20 | 51.71157 | 2.95281 | 34293 ft | 423 kts | 264° |
| 2026-04-26 21:21 | 51.70379 | 2.85934 | 34292 ft | 422 kts | 263° |
| 2026-04-26 21:21 | 51.69556 | 2.76585 | 34284 ft | 422 kts | 263° |
| 2026-04-26 21:22 | 51.68715 | 2.67286 | 34286 ft | 421 kts | 263° |
| 2026-04-26 21:22 | 51.67864 | 2.57977 | 34289 ft | 421 kts | 263° |
| 2026-04-26 21:23 | 51.66582 | 2.43946 | 34286 ft | 422 kts | 263° |
| 2026-04-26 21:23 | 51.65753 | 2.34830 | 34286 ft | 422 kts | 263° |
| 2026-04-26 21:24 | 51.64891 | 2.25289 | 34294 ft | 422 kts | 263° |
| 2026-04-26 21:24 | 51.64053 | 2.15959 | 34299 ft | 421 kts | 263° |
| 2026-04-26 21:25 | 51.63220 | 2.06587 | 34302 ft | 421 kts | 263° |
| 2026-04-26 21:25 | 51.62402 | 1.97305 | 34301 ft | 420 kts | 263° |
| 2026-04-26 21:26 | 51.61572 | 1.88027 | 34298 ft | 420 kts | 260° |
| 2026-04-26 21:26 | 51.60679 | 1.83522 | 34314 ft | 422 kts | 248° |
| 2026-04-26 21:26 | 51.59236 | 1.79406 | 34305 ft | 427 kts | 237° |
| 2026-04-26 21:27 | 51.55243 | 1.72250 | 34302 ft | 430 kts | 231° |
| 2026-04-26 21:27 | 51.51223 | 1.65197 | 34304 ft | 430 kts | 231° |
| 2026-04-26 21:28 | 51.47905 | 1.57328 | 34314 ft | 423 kts | 248° |
| 2026-04-26 21:28 | 51.45868 | 1.48503 | 34302 ft | 422 kts | 252° |
| 2026-04-26 21:29 | 51.43823 | 1.39935 | 33086 ft | 422 kts | 244° |
| 2026-04-26 21:29 | 51.42113 | 1.36003 | 31466 ft | 434 kts | 231° |
| 2026-04-26 21:29 | 51.39940 | 1.32734 | 30424 ft | 435 kts | 219° |
| 2026-04-26 21:30 | 51.37458 | 1.29957 | 29508 ft | 431 kts | 218° |
| 2026-04-26 21:30 | 51.35025 | 1.27210 | 28635 ft | 426 kts | 217° |
| 2026-04-26 21:30 | 51.32776 | 1.24651 | 27852 ft | 421 kts | 218° |
| 2026-04-26 21:30 | 51.30351 | 1.21870 | 26998 ft | 416 kts | 218° |
| 2026-04-26 21:31 | 51.28350 | 1.19563 | 26252 ft | 413 kts | 218° |
| 2026-04-26 21:31 | 51.25887 | 1.16714 | 25429 ft | 406 kts | 218° |
| 2026-04-26 21:31 | 51.23589 | 1.14048 | 24606 ft | 402 kts | 218° |
| 2026-04-26 21:31 | 51.21362 | 1.11456 | 23842 ft | 398 kts | 218° |
| 2026-04-26 21:32 | 51.19143 | 1.08869 | 23123 ft | 393 kts | 218° |
| 2026-04-26 21:32 | 51.16934 | 1.06292 | 22340 ft | 390 kts | 218° |
| 2026-04-26 21:32 | 51.14757 | 1.03748 | 21593 ft | 386 kts | 218° |
| 2026-04-26 21:32 | 51.12636 | 1.01267 | 20860 ft | 383 kts | 218° |
| 2026-04-26 21:33 | 51.10532 | 0.98806 | 20166 ft | 379 kts | 219° |
| 2026-04-26 21:33 | 51.08424 | 0.96340 | 19404 ft | 376 kts | 218° |
| 2026-04-26 21:33 | 51.06441 | 0.93665 | 18681 ft | 370 kts | 229° |
| 2026-04-26 21:33 | 51.04838 | 0.90519 | 17964 ft | 364 kts | 239° |
| 2026-04-26 21:34 | 51.03633 | 0.86968 | 17248 ft | 358 kts | 248° |
| 2026-04-26 21:34 | 51.02622 | 0.83393 | 16544 ft | 355 kts | 247° |
| 2026-04-26 21:34 | 51.01608 | 0.79855 | 15888 ft | 350 kts | 247° |
| 2026-04-26 21:34 | 51.00609 | 0.76406 | 15174 ft | 348 kts | 246° |
| 2026-04-26 21:35 | 50.99580 | 0.72879 | 14521 ft | 343 kts | 246° |
| 2026-04-26 21:35 | 50.98584 | 0.69480 | 13856 ft | 340 kts | 246° |
| 2026-04-26 21:35 | 50.97589 | 0.66125 | 13142 ft | 338 kts | 245° |
| 2026-04-26 21:35 | 50.96582 | 0.62768 | 12425 ft | 336 kts | 245° |
| 2026-04-26 21:36 | 50.95600 | 0.59496 | 12278 ft | 315 kts | 245° |
| 2026-04-26 21:36 | 50.94976 | 0.57418 | 12275 ft | 301 kts | 245° |
| 2026-04-26 21:36 | 50.93838 | 0.53624 | 12240 ft | 274 kts | 246° |
| 2026-04-26 21:36 | 50.93041 | 0.50968 | 12244 ft | 254 kts | 246° |
| 2026-04-26 21:37 | 50.92305 | 0.48511 | 12237 ft | 236 kts | 246° |
| 2026-04-26 21:37 | 50.91614 | 0.46262 | 12233 ft | 217 kts | 245° |
| 2026-04-26 21:37 | 50.91139 | 0.44132 | 12214 ft | 196 kts | 261° |
| 2026-04-26 21:37 | 50.91038 | 0.42089 | 12198 ft | 173 kts | 276° |
| 2026-04-26 21:38 | 50.91273 | 0.40351 | 12109 ft | 152 kts | 293° |
| 2026-04-26 21:38 | 50.91746 | 0.38772 | 11424 ft | 178 kts | 301° |
| 2026-04-26 21:38 | 50.92501 | 0.37134 | 10922 ft | 180 kts | 314° |
| 2026-04-26 21:38 | 50.93394 | 0.35939 | 10832 ft | 163 kts | 328° |
| 2026-04-26 21:39 | 50.94459 | 0.35128 | 10145 ft | 182 kts | 343° |
| 2026-04-26 21:39 | 50.95714 | 0.34663 | 9649 ft | 188 kts | 339° |
| 2026-04-26 21:39 | 50.96843 | 0.33789 | 9394 ft | 178 kts | 324° |
| 2026-04-26 21:39 | 50.97851 | 0.32469 | 8120 ft | 231 kts | 314° |
| 2026-04-26 21:40 | 50.98870 | 0.30260 | 6831 ft | 264 kts | 297° |
| 2026-04-26 21:40 | 50.99523 | 0.27613 | 6563 ft | 256 kts | 283° |
| 2026-04-26 21:40 | 50.99878 | 0.24910 | 5934 ft | 264 kts | 284° |
| 2026-04-26 21:40 | 51.00357 | 0.22117 | 5573 ft | 260 kts | 288° |
| 2026-04-26 21:41 | 51.00954 | 0.19429 | 5115 ft | 259 kts | 300° |
| 2026-04-26 21:41 | 51.02074 | 0.17248 | 4665 ft | 256 kts | 313° |
| 2026-04-26 21:41 | 51.03160 | 0.15385 | 4311 ft | 254 kts | 314° |
| 2026-04-26 21:41 | 51.04466 | 0.13147 | 3858 ft | 254 kts | 314° |
| 2026-04-26 21:42 | 51.05640 | 0.11119 | 3477 ft | 251 kts | 314° |
| 2026-04-26 21:42 | 51.06804 | 0.09093 | 3274 ft | 241 kts | 314° |
| 2026-04-26 21:42 | 51.07917 | 0.07141 | 3286 ft | 238 kts | 314° |
| 2026-04-26 21:42 | 51.09038 | 0.05163 | 3285 ft | 239 kts | 314° |
| 2026-04-26 21:43 | 51.10154 | 0.03199 | 3292 ft | 238 kts | 314° |
| 2026-04-26 21:43 | 51.11268 | 0.01242 | 3288 ft | 238 kts | 314° |
| 2026-04-26 21:43 | 51.12385 | -0.00715 | 3292 ft | 237 kts | 314° |
| 2026-04-26 21:43 | 51.13465 | -0.02608 | 3274 ft | 224 kts | 314° |
| 2026-04-26 21:44 | 51.14459 | -0.04362 | 3252 ft | 208 kts | 314° |
| 2026-04-26 21:44 | 51.15451 | -0.05819 | 3301 ft | 181 kts | 335° |
| 2026-04-26 21:44 | 51.16593 | -0.06120 | 3302 ft | 152 kts | 14° |
| 2026-04-26 21:44 | 51.17429 | -0.05433 | 3192 ft | 128 kts | 46° |
| 2026-04-26 21:45 | 51.17843 | -0.04095 | 3066 ft | 150 kts | 79° |
| 2026-04-26 21:45 | 51.17612 | -0.02488 | 2984 ft | 153 kts | 125° |
| 2026-04-26 21:45 | 51.16740 | -0.01680 | 2711 ft | 149 kts | 170° |
| 2026-04-26 21:45 | 51.15732 | -0.02014 | 2261 ft | 153 kts | 210° |
| 2026-04-26 21:46 | 51.15063 | -0.03255 | 1808 ft | 151 kts | 250° |
| 2026-04-26 21:46 | 51.15071 | -0.04895 | 1438 ft | 155 kts | 296° |
| 2026-04-26 21:46 | 51.15573 | -0.06352 | 1442 ft | 148 kts | 302° |
| 2026-04-26 21:46 | 51.15948 | -0.07774 | 1323 ft | 138 kts | 285° |
| 2026-04-26 21:47 | 51.16039 | -0.09299 | 961 ft | 137 kts | 266° |
| 2026-04-26 21:47 | 51.15909 | -0.10857 | 825 ft | 161 kts | 259° |
| 2026-04-26 21:47 | 51.15424 | -0.12437 | 1332 ft | 156 kts | 224° |
| 2026-04-26 21:47 | 51.14675 | -0.13734 | 1616 ft | 159 kts | 235° |
| 2026-04-26 21:48 | 51.14303 | -0.15140 | 2505 ft | 139 kts | 258° |
| 2026-04-26 21:48 | 51.14212 | -0.16903 | 2646 ft | 175 kts | 270° |
| 2026-04-26 21:48 | 51.13893 | -0.18856 | 3142 ft | 188 kts | 254° |
| 2026-04-26 21:48 | 51.13459 | -0.20815 | 3605 ft | 188 kts | 252° |
| 2026-04-26 21:49 | 51.13005 | -0.22837 | 3350 ft | 205 kts | 251° |
| 2026-04-26 21:49 | 51.12512 | -0.25026 | 3315 ft | 208 kts | 251° |
| 2026-04-26 21:49 | 51.12018 | -0.27198 | 3303 ft | 206 kts | 251° |
| 2026-04-26 21:49 | 51.11528 | -0.29336 | 3296 ft | 204 kts | 251° |
| 2026-04-26 21:50 | 51.11047 | -0.31432 | 3297 ft | 202 kts | 251° |
| 2026-04-26 21:50 | 51.10727 | -0.32832 | 3297 ft | 200 kts | 251° |
| 2026-04-26 21:50 | 51.10061 | -0.35531 | 3293 ft | 197 kts | 249° |
| 2026-04-26 21:50 | 51.09506 | -0.37627 | 3024 ft | 210 kts | 246° |
| 2026-04-26 21:51 | 51.08929 | -0.39654 | 3008 ft | 201 kts | 246° |
| 2026-04-26 21:51 | 51.08525 | -0.41708 | 2913 ft | 186 kts | 276° |
| 2026-04-26 21:51 | 51.08978 | -0.43452 | 2839 ft | 159 kts | 317° |
| 2026-04-26 21:51 | 51.09872 | -0.44215 | 2606 ft | 143 kts | 359° |
| 2026-04-26 21:52 | 51.10725 | -0.43788 | 2256 ft | 131 kts | 49° |
| 2026-04-26 21:52 | 51.11194 | -0.42556 | 1833 ft | 136 kts | 61° |
| 2026-04-26 21:52 | 51.11622 | -0.41260 | 1711 ft | 130 kts | 65° |
| 2026-04-26 21:52 | 51.11900 | -0.39871 | 1598 ft | 132 kts | 78° |
| 2026-04-26 21:53 | 51.12127 | -0.38440 | 1559 ft | 132 kts | 77° |
| 2026-04-26 21:53 | 51.12313 | -0.37010 | 1562 ft | 135 kts | 79° |
| 2026-04-26 21:53 | 51.12495 | -0.35449 | 1501 ft | 158 kts | 79° |
| 2026-04-26 21:53 | 51.12701 | -0.33705 | 1461 ft | 153 kts | 78° |
| 2026-04-26 21:54 | 51.12944 | -0.32095 | 1166 ft | 146 kts | 76° |
| 2026-04-26 21:54 | 51.13183 | -0.30502 | 891 ft | 156 kts | 76° |
| 2026-04-26 21:54 | 51.13442 | -0.28759 | 795 ft | 160 kts | 76° |
| 2026-04-26 21:54 | 51.13667 | -0.27137 | 689 ft | 153 kts | 78° |
| 2026-04-26 21:55 | 51.13897 | -0.25500 | 573 ft | 154 kts | 77° |
| 2026-04-26 21:55 | 51.14139 | -0.23821 | 409 ft | 154 kts | 78° |
| 2026-04-26 21:55 | 51.14359 | -0.22271 | 291 ft | 133 kts | 77° |
| 2026-04-26 21:55 | 51.14553 | -0.20871 | 211 ft | 130 kts | 77° |
| 2026-04-26 21:56 | 51.14742 | -0.19536 | 198 ft | 97 kts | 78° |
| 2026-04-26 21:56 | 51.14850 | -0.18757 | 197 ft | 44 kts | 76° |
| 2026-04-26 21:56 | 51.14955 | -0.18482 | 197 ft | 20 kts | 51° |
| 2026-04-26 21:56 | 51.15025 | -0.18343 | 197 ft | 4 kts | 52° |
| 2026-04-26 21:57 | 51.15031 | -0.18331 | 197 ft | 7 kts | 52° |
| 2026-04-26 21:57 | 51.15073 | -0.18247 | 197 ft | 7 kts | 52° |
| 2026-04-26 21:57 | 51.15109 | -0.18176 | 197 ft | 10 kts | 59° |
| 2026-04-26 21:57 | 51.15123 | -0.18111 | 197 ft | 0 kts | 75° |
| 2026-04-26 21:58 | 51.15123 | -0.18110 | 197 ft | 1 kts | 72° |
| 2026-04-26 21:58 | 51.15154 | -0.18074 | 197 ft | 4 kts | 7° |
| 2026-04-26 21:58 | 51.15180 | -0.18074 | 197 ft | 4 kts | 1° |
| 2026-04-26 21:58 | 51.15195 | -0.18068 | 196 ft | 2 kts | 26° |
| 2026-04-26 21:59 | 51.15225 | -0.17985 | 197 ft | 12 kts | 76° |
| 2026-04-26 21:59 | 51.15243 | -0.17857 | 197 ft | 10 kts | 77° |
| 2026-04-26 21:59 | 51.15255 | -0.17770 | 196 ft | 6 kts | 77° |
| 2026-04-26 21:59 | 51.15265 | -0.17693 | 196 ft | 9 kts | 79° |
| 2026-04-26 22:00 | 51.15278 | -0.17589 | 197 ft | 10 kts | 79° |
| 2026-04-26 22:00 | 51.15291 | -0.17486 | 197 ft | 9 kts | 78° |
| 2026-04-26 22:00 | 51.15309 | -0.17393 | 197 ft | 7 kts | 46° |
| 2026-04-26 22:00 | 51.15353 | -0.17376 | 197 ft | 7 kts | 356° |
| 2026-04-26 22:01 | 51.15411 | -0.17393 | 196 ft | 11 kts | 346° |
| 2026-04-26 22:01 | 51.15489 | -0.17420 | 196 ft | 12 kts | 347° |
| 2026-04-26 22:01 | 51.15562 | -0.17437 | 195 ft | 10 kts | 20° |
| 2026-04-26 22:01 | 51.15593 | -0.17356 | 195 ft | 7 kts | 74° |
| 2026-04-26 22:02 | 51.15604 | -0.17288 | 195 ft | 5 kts | 76° |
| 2026-04-26 22:02 | 51.15612 | -0.17236 | 195 ft | 5 kts | 76° |
| 2026-04-26 22:02 | 51.15625 | -0.17150 | 195 ft | 10 kts | 76° |
| 2026-04-26 22:02 | 51.15638 | -0.17062 | 195 ft | 0 kts | 77° |
| 2026-04-26 22:03 | 51.15645 | -0.17011 | 196 ft | 17 kts | 80° |
| 2026-04-26 22:03 | 51.15667 | -0.16935 | 196 ft | 5 kts | 38° |
| 2026-04-26 22:03 | 51.15698 | -0.16906 | 196 ft | 5 kts | 31° |
| 2026-04-26 22:03 | 51.15732 | -0.16872 | 196 ft | 4 kts | 32° |
| 2026-04-26 22:04 | 51.15738 | -0.16863 | 196 ft | 1 kts | 71° |
| 2026-04-26 22:04 | 51.15741 | -0.16852 | 196 ft | 0 kts | 63° |
| 2026-04-26 22:04 | 51.15748 | -0.16845 | 196 ft | 0 kts | 11° |
| 2026-04-26 22:04 | 51.15750 | -0.16844 | 196 ft | 0 kts | 9° |